Sagittarian — WCY5210 — position and weather

sailwx.info

Track history (hours):
 
Tides and Currents Weather Stations Pressure Air Temp Water Temp Dewpoint Dewpoint Depression Visibility Wind Speed Wind Dir Waves Ship Positions

Sagittarian

More information available from US FCC via Universal Licensing System and Coast Guard Vessel Documentation Center.

Last reported at 2014-Jul-31 08:33 UTC. Time now 2014-Jul-31 09:30 UTC.
Position N 37°53' W 122°25'.

; draft 3 m.

Type: Towing. MMSI: 366969510.

Date/timePositionNaut miles runAvg speedWind from/ knotsBaromVisibWave heightAir tempDewpointWater temp
2014-Jul-31 08:33N 37°53' W 122°25'2 2.4
2014-Jul-31 07:33N 37°55' W 122°25'4 3.9
2014-Jul-31 06:33N 37°51' W 122°24'7 6.8
2014-Jul-31 05:33N 37°48' W 122°31'1 1.4
2014-Jul-31 04:33N 37°49' W 122°30'7 6.5
2014-Jul-31 03:33N 37°47' W 122°23'0 0.2
2014-Jul-31 02:33N 37°46' W 122°23'1 0.9
2014-Jul-31 01:33N 37°47' W 122°23'1211.4
2014-Jul-31 00:32N 37°59' W 122°26'1010.5
2014-Jul-30 23:33N 38°04' W 122°14'5 5.0
2014-Jul-30 22:32N 38°02' W 122°08'5 4.0
2014-Jul-30 21:23N 38°04' W 122°13'8 7.4
2014-Jul-30 20:15N 38°01' W 122°23'5 7.2
2014-Jul-30 19:33N 37°56' W 122°26'1 1.2
2014-Jul-30 18:33N 37°55' W 122°25'0 0.2
2014-Jul-30 17:33N 37°55' W 122°25'0 0.0
2014-Jul-30 16:33N 37°55' W 122°25'0 0.0
2014-Jul-30 15:33N 37°55' W 122°25'7 6.9
2014-Jul-30 14:33N 37°48' W 122°23'1 0.1
2014-Jul-29 19:33N 37°47' W 122°23'8 8.4
2014-Jul-29 18:34N 37°55' W 122°25'1 0.9
2014-Jul-29 17:33N 37°55' W 122°26'7 6.7
2014-Jul-29 16:33N 37°49' W 122°29'2 2.3
2014-Jul-29 15:34N 37°49' W 122°26'4 3.7
2014-Jul-29 14:33N 37°46' W 122°23'  
2014-Jul-25 00:33N 37°46' W 122°23'0 0.0
2014-Jul-24 21:32N 37°46' W 122°23'2 1.6
2014-Jul-24 20:33N 37°48' W 122°23'10 9.6
2014-Jul-24 19:32N 37°58' W 122°26'10 8.6
2014-Jul-24 18:19N 38°04' W 122°15'7 3.6
2014-Jul-24 16:19N 38°03' W 122°06'4 5.0
2014-Jul-24 15:32N 38°03' W 122°11'2 0.2
2014-Jul-24 03:30N 38°02' W 122°08'8 8.2
2014-Jul-24 02:33N 38°03' W 122°18'9 9.3
2014-Jul-24 01:33N 37°56' W 122°26'0 0.1
2014-Jul-24 00:33N 37°56' W 122°26'10 9.8
2014-Jul-23 23:29N 38°04' W 122°16'7 0.2
2014-Jul-22 07:18N 38°00' W 122°24'5 6.4
2014-Jul-22 06:33N 37°55' W 122°25'1 1.1
2014-Jul-22 05:33N 37°55' W 122°26'4 4.4
2014-Jul-22 04:33N 37°60' W 122°25'10 4.9
2014-Jul-22 02:32N 38°04' W 122°14'  
Track history (hours):
 
Tides and Currents Weather Stations Pressure Air Temp Water Temp Dewpoint Dewpoint Depression Visibility Wind Speed Wind Dir Waves Ship Positions

Sagittarian

More information available from US FCC via Universal Licensing System and Coast Guard Vessel Documentation Center.

Last reported at 2014-Jul-31 08:33 UTC. Time now 2014-Jul-31 09:30 UTC.
Position N 37°53' W 122°25'.

; draft 3 m.

Type: Towing. MMSI: 366969510.

Date/timePositionNaut miles runAvg speedWind from/ knotsBaromVisibWave heightAir tempDewpointWater temp
2014-Jul-31 08:33N 37°53' W 122°25'2 2.4
2014-Jul-31 07:33N 37°55' W 122°25'4 3.9
2014-Jul-31 06:33N 37°51' W 122°24'7 6.8
2014-Jul-31 05:33N 37°48' W 122°31'1 1.4
2014-Jul-31 04:33N 37°49' W 122°30'7 6.5
2014-Jul-31 03:33N 37°47' W 122°23'0 0.2
2014-Jul-31 02:33N 37°46' W 122°23'1 0.9
2014-Jul-31 01:33N 37°47' W 122°23'1211.4
2014-Jul-31 00:32N 37°59' W 122°26'1010.5
2014-Jul-30 23:33N 38°04' W 122°14'5 5.0
2014-Jul-30 22:32N 38°02' W 122°08'5 4.0
2014-Jul-30 21:23N 38°04' W 122°13'8 7.4
2014-Jul-30 20:15N 38°01' W 122°23'5 7.2
2014-Jul-30 19:33N 37°56' W 122°26'1 1.2
2014-Jul-30 18:33N 37°55' W 122°25'0 0.2
2014-Jul-30 17:33N 37°55' W 122°25'0 0.0
2014-Jul-30 16:33N 37°55' W 122°25'0 0.0
2014-Jul-30 15:33N 37°55' W 122°25'7 6.9
2014-Jul-30 14:33N 37°48' W 122°23'1 0.1
2014-Jul-29 19:33N 37°47' W 122°23'8 8.4
2014-Jul-29 18:34N 37°55' W 122°25'1 0.9
2014-Jul-29 17:33N 37°55' W 122°26'7 6.7
2014-Jul-29 16:33N 37°49' W 122°29'2 2.3
2014-Jul-29 15:34N 37°49' W 122°26'4 3.7
2014-Jul-29 14:33N 37°46' W 122°23'  
2014-Jul-25 00:33N 37°46' W 122°23'0 0.0
2014-Jul-24 21:32N 37°46' W 122°23'2 1.6
2014-Jul-24 20:33N 37°48' W 122°23'10 9.6
2014-Jul-24 19:32N 37°58' W 122°26'10 8.6
2014-Jul-24 18:19N 38°04' W 122°15'7 3.6
2014-Jul-24 16:19N 38°03' W 122°06'4 5.0
2014-Jul-24 15:32N 38°03' W 122°11'2 0.2
2014-Jul-24 03:30N 38°02' W 122°08'8 8.2
2014-Jul-24 02:33N 38°03' W 122°18'9 9.3
2014-Jul-24 01:33N 37°56' W 122°26'0 0.1
2014-Jul-24 00:33N 37°56' W 122°26'10 9.8
2014-Jul-23 23:29N 38°04' W 122°16'7 0.2
2014-Jul-22 07:18N 38°00' W 122°24'5 6.4
2014-Jul-22 06:33N 37°55' W 122°25'1 1.1
2014-Jul-22 05:33N 37°55' W 122°26'4 4.4
2014-Jul-22 04:33N 37°60' W 122°25'10 4.9
2014-Jul-22 02:32N 38°04' W 122°14'  

Dump ship's entire track history